• Join FlightAware (Why Join?)
  • Login
  • US Flag 
11:23PM EDT


 

Airport Tracker/Info


-or-


 

Live Flight TrackerFlight Track Log ✈ GCT52 ✈ 03-May-2013 ✈ KDAL - KHOU

Flight Track Log - Related Links

Times and Time Zones

All times are in EDT time to prevent confusion due to time zone crossing. See the GCT52 flight status page for this flight to view local times or setup timezone preferences in your user account.

Time Position Orientation Groundspeed Altitude Reporting Facility
EDT Latitude Longitude Course Direction KTS MPH feet Rate Location/Type
05:34PM 32.8667 -96.8500 312° West 162 186 2,000  Level Dallas / Fort Worth TRACON
05:35PM 32.9167 -96.9167 312° West 252 290 4,900 2,040 Climbing Dallas / Fort Worth TRACON
05:36PM 32.9667 -96.9000 16° North 285 328 6,600 3,060 Climbing Dallas / Fort Worth TRACON
05:37PM 32.9333 -96.8167 115° Southeast 333 383 11,100 3,660 Climbing Dallas / Fort Worth TRACON
05:38PM 32.8333 -96.8333 188° South 391 450 14,000 2,880 Climbing Dallas / Fort Worth TRACON
05:40PM 32.6444 -96.8731 190° South 362 417 19,200 3,120 Climbing Fort Worth Center
05:41PM 32.5131 -96.8986 189° South 423 487 22,700 1,860 Climbing Fort Worth Center
05:42PM 32.3981 -96.9214 189° South 460 529 23,000 120 Climbing Fort Worth Center
05:43PM 32.2542 -96.9344 184° South 470 541 23,000  Level Fort Worth Center
05:44PM 32.1247 -96.9153 173° South 480 552 23,000  Level Fort Worth Center
05:45PM 31.9889 -96.8867 170° South 480 552 23,000  Level Fort Worth Center
05:46PM 31.8572 -96.8631 171° South 487 560 23,000  Level Fort Worth Center
05:47PM 31.7236 -96.8419 172° South 487 560 23,000  Level Fort Worth Center
05:48PM 31.6133 -96.8228 172° South 485 558 23,000  Level Houston Center
05:49PM 31.4786 -96.8006 172° South 482 555 23,000  Level Houston Center
05:50PM 31.3431 -96.7786 172° South 483 556 23,000  Level Houston Center
05:51PM 31.1853 -96.7539 172° South 482 555 23,000  Level Houston Center
05:52PM 31.0486 -96.7331 173° South 483 556 23,000  Level Houston Center
05:53PM 30.9169 -96.6764 160° South 496 571 23,000  Level Houston Center
05:54PM 30.7919 -96.5936 150° Southeast 510 587 23,000 -900 Level Houston Center
05:55PM 30.6683 -96.5111 150° Southeast 505 581 21,200 -2,160 Descending Houston Center
05:56PM 30.5506 -96.4336 150° Southeast 487 560 18,600 -2,820 Descending Houston Center
05:57PM 30.4544 -96.3714 151° Southeast 459 528 16,200 -2,640 Descending Houston Center
05:57PM 30.4381 -96.3586 146° Southeast 468 539 15,900 -2,340 Descending Houston Center
05:58PM 30.3344 -96.2903 150° Southeast 442 509 13,600 -2,520 Descending Houston Center
05:59PM 30.2303 -96.2247 151° Southeast 414 476 11,300 -1,200 Descending Houston Center
06:00PM 30.1156 -96.1581 153° Southeast 414 476 11,100 -120 Descending Houston Center
06:01PM 30.0356 -96.0561 132° Southeast 423 487 11,100 -60 Level Houston Center
06:02PM 29.9692 -95.9456 125° Southeast 421 484 11,000 -300 Descending Houston Center
06:03PM 29.9056 -95.8394 125° Southeast 355 409 10,600 -900 Descending Houston Center
06:04PM 29.8536 -95.7517 124° Southeast 331 381 9,200 -1,500 Descending Houston Center
06:05PM 29.8094 -95.6797 125° Southeast 322 371 7,900 -1,500 Descending Houston Center
06:05PM 29.7936 -95.6519 123° Southeast 321 369 7,400 -1,560 Descending Houston Center
06:06PM 29.7550 -95.5875 125° Southeast 302 348 6,200 -1,380 Descending Houston Center
06:06PM 29.7453 -95.5725 127° Southeast 308 354 6,000 -180 Descending Houston Center
06:07PM 29.7056 -95.5044 124° Southeast 282 325 6,000  Level Houston Center
06:08PM 29.6617 -95.4375 127° Southeast 247 284 6,000  Level Houston Center
06:08PM 29.6586 -95.4294 114° Southeast 273 314 6,000  Level Houston Center
06:09PM 29.6247 -95.3794 128° Southeast 244 281 6,000  Level Houston Center
06:09PM 29.6069 -95.3572 133° Southeast 250 288 6,000  Level Houston Center
06:10PM 29.5731 -95.3183 135° Southeast 251 289 6,000 -300 Level Houston Center
06:10PM 29.5578 -95.3014 136° Southeast 252 290 5,700 -1,020 Descending Houston Center
06:11PM 29.5236 -95.2617 135° Southeast 250 288 5,000 -1,020 Descending Houston Center
06:12PM 29.5092 -95.2469 138° Southeast 249 287 4,700 -1,020 Descending Houston Center
06:12PM 29.5056 -95.2017 95° East 226 260 4,000 -1,020 Descending Houston Center
06:13PM 29.5167 -95.1867 50° Northeast 225 259 3,700 -900 Descending Houston Center
06:13PM 29.5419 -95.1636 38° Northeast 157 181 3,100 -900 Descending Houston Center
06:14PM 29.5558 -95.1747 325° Northwest 171 197 2,800 -1,080 Descending Houston Center
06:14PM 29.5719 -95.1933 315° West 123 142 1,900 -1,080 Descending Houston Center
06:15PM 29.5806 -95.2028 316° Northwest 137 158 1,700 -720 Descending Houston Center
06:15PM 29.5978 -95.2217 316° Northwest 124 143 1,200 -780 Descending Houston Center
06:16PM 29.6056 -95.2322 310° West 129 148 900 -720 Descending Houston Center
06:16PM 29.6214 -95.2522 312° West 121 139 500 -600 Descending Houston Center
06:17PM 29.6292 -95.2600 319° Northwest 124 143 300 -600 Descending Houston Center